METAR AND TAF INFORMATION
METAR FOR EHEH
ADDS - METARS form results

(0528 UTC 21 April 2021)
Data provider http://aviationweather.gov/metar/data/
 
METAR text: EHEH 210525Z AUTO VRB02KT 8000 BR FEW077 07/05 Q1017 BLU NOSIG
Conditions at: EHEH (EINDHOVEN RNLAFB, NL) observed 0525 UTC 21 April 2021
Temperature: 7.0°C (45°F)
Dewpoint: 5.0°C (41°F) [RH = 87%]
Pressure (altimeter): 30.03 inches Hg (1017.0 mb)
Winds: variable direction winds at 2 MPH (2 knots; 1.0 m/s)
Visibility: 5 miles ( 8 km)
Ceiling: at least 12,000 feet AGL
Clouds: few clouds at 7700 feet AGL
Weather: BR  (mist)

METAR text: EHEH 210455Z AUTO VRB02KT 9000 BR BKN075 06/04 Q1016 BLU NOSIG
Conditions at: EHEH (EINDHOVEN RNLAFB, NL) observed 0455 UTC 21 April 2021
Temperature: 6.0°C (43°F)
Dewpoint: 4.0°C (39°F) [RH = 87%]
Pressure (altimeter): 30.00 inches Hg (1016.0 mb)
Winds: variable direction winds at 2 MPH (2 knots; 1.0 m/s)
Visibility: 6 miles ( 9 km)
Ceiling: 7500 feet AGL
Clouds: broken clouds at 7500 feet AGL
Weather: BR  (mist)

Forecast for: EHEH (EINDHOVEN RNLAFB, NL)
Text: TAF EHEH 210506Z 2106/2212 VRB01KT 9000 NSC
Forecast period: 0600 UTC 21 April 2021 to 1200 UTC 22 April 2021
Forecast type: FROM: standard forecast or significant change
Winds: variable direction winds at 1 MPH (1 knots; 0.5 m/s)
Visibility: 6 miles (9 km)
Ceiling: unknown
Clouds: missing
Weather: no significant weather forecast for this period
Text: BECMG 2106/2109 35007KT
Forecast period: 0600 UTC 21 April 2021 to 1200 UTC 22 April 2021
Forecast type: BECOMING: Conditions expected to become as follows by 0900 UTC 21 April 2021
Winds: from the N (350 degrees) at 8 MPH (7 knots; 3.6 m/s)
Visibility: 6 miles (9 km)
Ceiling: unknown
Clouds: missing
Weather: no significant weather forecast for this period
Text: TEMPO 2114/2119 01012G22KT
Forecast period: 1400 to 1900 UTC 21 April 2021
Forecast type: TEMPORARY: The following changes expected for less than half the time period
Winds: from the N (10 degrees) at 14 MPH (12 knots; 6.2 m/s)
gusting to 25 MPH (22 knots; 11.3 m/s)
Visibility: missing
Ceiling: unknown
Clouds: missing
Weather: no significant weather forecast for this period

 AIRPORT MAP

 RUNWAY INFORMATION
Runway 03 Runway length 9843 ft Runway width 148 ft
Runway elevation 73 ft Runway displaced threshold 821 ft Runway heading 35
Runway 21 Runway length 9843 ft Runway width 148 ft
Runway elevation 67 ft Runway displaced threshold 821 ft Runway heading 215

 AIRPORT FREQUENCIES
Type APP Name APP Frequency 123.175 MHZ
Type ATIS Name ATIS Frequency 126.025 MHZ
Type DIR Name DIRECTOR Frequency 124.525 MHZ
Type GND Name GND Frequency 121.925 MHZ
Type TWR Name TWR Frequency 131 MHZ

 AIRPORT NEAR NAVIGATION AIDS
Type NDB Name Eindhoven Frequency 397 KHZ
Type TACAN Name Eindhoven Frequency 117200 KHZ